Sterling, Colorado
Current Conditions -  °F | °C
As of 9:10 AM on Friday 21 Nov 2014 (Local Time) from KSTK Reporting Station
Overcast Overcast  
Wind Chill: 31°   Ceiling: 11000
Heat Index: 37°   Visibility: 10mi
Dew Point: 28°   Wind: 8mph
Humidity: 70%   Direction: 220°SW
Pressure: 29.97"   Gusts: NA
Location:  40.63°N, 103.2°W
Report Text: KSTK 211610Z AUTO 22007KT 10SM OVC110 03/M02 A2997 RMK AO2
Loading
Personal Weather Stations






























Interactive Weather Map New forecast layout! Learn more

10-Day Weather Forecast

Advertisements
Track Severe Weather on mobile